sensor_id;sensor_type;location;lat;lon;timestamp;temperature;humidity
18450;DHT22;9354;50.194;7.690;2022-10-18T00:01:43;17.20;99.90
18450;DHT22;9354;50.194;7.690;2022-10-18T00:04:10;17.20;99.90
18450;DHT22;9354;50.194;7.690;2022-10-18T00:06:37;17.20;99.90
18450;DHT22;9354;50.194;7.690;2022-10-18T00:09:05;17.20;99.90
18450;DHT22;9354;50.194;7.690;2022-10-18T00:11:32;17.20;99.90
18450;DHT22;9354;50.194;7.690;2022-10-18T00:14:00;17.20;99.90
18450;DHT22;9354;50.194;7.690;2022-10-18T00:16:27;17.20;99.90
18450;DHT22;9354;50.194;7.690;2022-10-18T00:18:56;17.20;99.90
18450;DHT22;9354;50.194;7.690;2022-10-18T00:21:24;17.20;99.90
18450;DHT22;9354;50.194;7.690;2022-10-18T00:23:52;17.20;99.90
18450;DHT22;9354;50.194;7.690;2022-10-18T00:26:21;17.10;99.90
18450;DHT22;9354;50.194;7.690;2022-10-18T00:28:51;17.10;99.90
18450;DHT22;9354;50.194;7.690;2022-10-18T00:31:20;17.10;99.90
18450;DHT22;9354;50.194;7.690;2022-10-18T00:33:50;17.10;99.90
18450;DHT22;9354;50.194;7.690;2022-10-18T00:36:19;17.10;99.90
18450;DHT22;9354;50.194;7.690;2022-10-18T00:38:47;17.10;99.90
18450;DHT22;9354;50.194;7.690;2022-10-18T00:41:16;17.10;99.90
18450;DHT22;9354;50.194;7.690;2022-10-18T00:43:55;17.10;99.90
18450;DHT22;9354;50.194;7.690;2022-10-18T00:46:24;17.10;99.90
18450;DHT22;9354;50.194;7.690;2022-10-18T00:48:52;17.10;99.90
18450;DHT22;9354;50.194;7.690;2022-10-18T00:51:25;17.10;99.90
18450;DHT22;9354;50.194;7.690;2022-10-18T00:53:53;17.10;99.90
18450;DHT22;9354;50.194;7.690;2022-10-18T00:56:21;17.10;99.90
18450;DHT22;9354;50.194;7.690;2022-10-18T00:58:49;17.10;99.90
18450;DHT22;9354;50.194;7.690;2022-10-18T01:01:17;17.10;99.90
18450;DHT22;9354;50.194;7.690;2022-10-18T01:03:44;17.00;99.90
18450;DHT22;9354;50.194;7.690;2022-10-18T01:06:12;17.00;99.90
18450;DHT22;9354;50.194;7.690;2022-10-18T01:08:57;16.90;99.90
18450;DHT22;9354;50.194;7.690;2022-10-18T01:11:38;16.90;99.90
18450;DHT22;9354;50.194;7.690;2022-10-18T01:14:21;16.80;99.90
18450;DHT22;9354;50.194;7.690;2022-10-18T01:16:56;16.80;99.90
18450;DHT22;9354;50.194;7.690;2022-10-18T01:20:01;16.80;99.90
18450;DHT22;9354;50.194;7.690;2022-10-18T01:22:33;16.80;99.90
18450;DHT22;9354;50.194;7.690;2022-10-18T01:25:11;16.70;99.90
18450;DHT22;9354;50.194;7.690;2022-10-18T01:27:46;16.60;99.90
18450;DHT22;9354;50.194;7.690;2022-10-18T01:30:41;16.60;99.90
18450;DHT22;9354;50.194;7.690;2022-10-18T01:33:32;16.50;99.90
18450;DHT22;9354;50.194;7.690;2022-10-18T01:36:03;16.50;99.90
18450;DHT22;9354;50.194;7.690;2022-10-18T01:38:32;16.50;99.90
18450;DHT22;9354;50.194;7.690;2022-10-18T01:41:02;16.50;99.90
18450;DHT22;9354;50.194;7.690;2022-10-18T01:43:31;16.50;99.90
18450;DHT22;9354;50.194;7.690;2022-10-18T01:46:02;16.50;99.90
18450;DHT22;9354;50.194;7.690;2022-10-18T01:48:30;16.50;99.90
18450;DHT22;9354;50.194;7.690;2022-10-18T01:50:58;16.50;99.90
18450;DHT22;9354;50.194;7.690;2022-10-18T01:53:29;16.50;99.90
18450;DHT22;9354;50.194;7.690;2022-10-18T01:56:14;16.50;99.90
18450;DHT22;9354;50.194;7.690;2022-10-18T01:58:53;16.50;99.90
18450;DHT22;9354;50.194;7.690;2022-10-18T02:01:28;16.50;99.90
18450;DHT22;9354;50.194;7.690;2022-10-18T02:04:04;16.50;99.90
18450;DHT22;9354;50.194;7.690;2022-10-18T02:06:35;16.50;99.90
18450;DHT22;9354;50.194;7.690;2022-10-18T02:09:09;16.50;99.90
18450;DHT22;9354;50.194;7.690;2022-10-18T02:11:39;16.50;99.90
18450;DHT22;9354;50.194;7.690;2022-10-18T02:14:08;16.50;99.90
18450;DHT22;9354;50.194;7.690;2022-10-18T02:16:40;16.50;99.90
18450;DHT22;9354;50.194;7.690;2022-10-18T02:19:12;16.50;99.90
18450;DHT22;9354;50.194;7.690;2022-10-18T02:21:41;16.50;99.90
18450;DHT22;9354;50.194;7.690;2022-10-18T02:24:11;16.50;99.90
18450;DHT22;9354;50.194;7.690;2022-10-18T02:26:39;16.40;99.90
18450;DHT22;9354;50.194;7.690;2022-10-18T02:29:07;16.40;99.90
18450;DHT22;9354;50.194;7.690;2022-10-18T02:31:38;16.30;99.90
18450;DHT22;9354;50.194;7.690;2022-10-18T02:34:16;16.30;99.90
18450;DHT22;9354;50.194;7.690;2022-10-18T02:36:47;16.20;99.90
18450;DHT22;9354;50.194;7.690;2022-10-18T02:39:19;16.20;99.90
18450;DHT22;9354;50.194;7.690;2022-10-18T02:41:48;16.20;99.90
18450;DHT22;9354;50.194;7.690;2022-10-18T02:44:15;16.10;99.90
18450;DHT22;9354;50.194;7.690;2022-10-18T02:46:45;16.10;99.90
18450;DHT22;9354;50.194;7.690;2022-10-18T02:49:13;16.10;99.90
18450;DHT22;9354;50.194;7.690;2022-10-18T02:51:42;16.10;99.90
18450;DHT22;9354;50.194;7.690;2022-10-18T02:54:09;16.10;99.90
18450;DHT22;9354;50.194;7.690;2022-10-18T02:56:37;16.10;99.90
18450;DHT22;9354;50.194;7.690;2022-10-18T02:59:04;16.10;99.90
18450;DHT22;9354;50.194;7.690;2022-10-18T03:01:32;16.10;99.90
18450;DHT22;9354;50.194;7.690;2022-10-18T03:04:01;16.10;99.90
18450;DHT22;9354;50.194;7.690;2022-10-18T03:06:28;16.20;99.90
18450;DHT22;9354;50.194;7.690;2022-10-18T03:08:55;16.20;99.90
18450;DHT22;9354;50.194;7.690;2022-10-18T03:11:23;16.20;99.90
18450;DHT22;9354;50.194;7.690;2022-10-18T03:13:50;16.30;99.90
18450;DHT22;9354;50.194;7.690;2022-10-18T03:16:18;16.30;99.90
18450;DHT22;9354;50.194;7.690;2022-10-18T03:18:45;16.40;99.90
18450;DHT22;9354;50.194;7.690;2022-10-18T03:21:14;16.40;99.90
18450;DHT22;9354;50.194;7.690;2022-10-18T03:23:41;16.40;99.90
18450;DHT22;9354;50.194;7.690;2022-10-18T03:26:09;16.40;99.90
18450;DHT22;9354;50.194;7.690;2022-10-18T03:28:36;16.40;99.90
18450;DHT22;9354;50.194;7.690;2022-10-18T03:31:04;16.40;99.90
18450;DHT22;9354;50.194;7.690;2022-10-18T03:33:32;16.40;99.90
18450;DHT22;9354;50.194;7.690;2022-10-18T03:35:59;16.40;99.90
18450;DHT22;9354;50.194;7.690;2022-10-18T03:38:28;16.50;99.90
18450;DHT22;9354;50.194;7.690;2022-10-18T03:40:55;16.50;99.90
18450;DHT22;9354;50.194;7.690;2022-10-18T03:43:23;16.50;99.90
18450;DHT22;9354;50.194;7.690;2022-10-18T03:45:51;16.50;99.90
18450;DHT22;9354;50.194;7.690;2022-10-18T03:48:18;16.50;99.90
18450;DHT22;9354;50.194;7.690;2022-10-18T03:50:46;16.50;99.90
18450;DHT22;9354;50.194;7.690;2022-10-18T03:53:13;16.50;99.90
18450;DHT22;9354;50.194;7.690;2022-10-18T03:55:42;16.50;99.90
18450;DHT22;9354;50.194;7.690;2022-10-18T03:58:09;16.40;99.90
18450;DHT22;9354;50.194;7.690;2022-10-18T04:00:37;16.40;99.90
18450;DHT22;9354;50.194;7.690;2022-10-18T04:03:04;16.40;99.90
18450;DHT22;9354;50.194;7.690;2022-10-18T04:05:31;16.40;99.90
18450;DHT22;9354;50.194;7.690;2022-10-18T04:07:59;16.40;99.90
18450;DHT22;9354;50.194;7.690;2022-10-18T04:10:27;16.40;99.90
18450;DHT22;9354;50.194;7.690;2022-10-18T04:12:55;16.40;99.90
18450;DHT22;9354;50.194;7.690;2022-10-18T04:15:23;16.40;99.90
18450;DHT22;9354;50.194;7.690;2022-10-18T04:17:50;16.40;99.90
18450;DHT22;9354;50.194;7.690;2022-10-18T04:20:18;16.40;99.90
18450;DHT22;9354;50.194;7.690;2022-10-18T04:22:49;16.40;99.90
18450;DHT22;9354;50.194;7.690;2022-10-18T04:25:17;16.40;99.90
18450;DHT22;9354;50.194;7.690;2022-10-18T04:27:44;16.50;99.90
18450;DHT22;9354;50.194;7.690;2022-10-18T04:30:13;16.50;99.90
18450;DHT22;9354;50.194;7.690;2022-10-18T04:32:40;16.50;99.90
18450;DHT22;9354;50.194;7.690;2022-10-18T04:35:08;16.50;99.90
18450;DHT22;9354;50.194;7.690;2022-10-18T04:37:36;16.50;99.90
18450;DHT22;9354;50.194;7.690;2022-10-18T04:40:04;16.50;99.90
18450;DHT22;9354;50.194;7.690;2022-10-18T04:42:32;16.50;99.90
18450;DHT22;9354;50.194;7.690;2022-10-18T04:44:59;16.40;99.90
18450;DHT22;9354;50.194;7.690;2022-10-18T04:47:28;16.40;99.90
18450;DHT22;9354;50.194;7.690;2022-10-18T04:49:55;16.40;99.90
18450;DHT22;9354;50.194;7.690;2022-10-18T04:52:23;16.40;99.90
18450;DHT22;9354;50.194;7.690;2022-10-18T04:54:50;16.40;99.90
18450;DHT22;9354;50.194;7.690;2022-10-18T04:57:17;16.40;99.90
18450;DHT22;9354;50.194;7.690;2022-10-18T04:59:45;16.30;99.90
18450;DHT22;9354;50.194;7.690;2022-10-18T05:02:12;16.40;99.90
18450;DHT22;9354;50.194;7.690;2022-10-18T05:04:41;16.40;99.90
18450;DHT22;9354;50.194;7.690;2022-10-18T05:07:08;16.40;99.90
18450;DHT22;9354;50.194;7.690;2022-10-18T05:09:35;16.40;99.90
18450;DHT22;9354;50.194;7.690;2022-10-18T05:12:03;16.40;99.90
18450;DHT22;9354;50.194;7.690;2022-10-18T05:14:30;16.40;99.90
18450;DHT22;9354;50.194;7.690;2022-10-18T05:16:58;16.40;99.90
18450;DHT22;9354;50.194;7.690;2022-10-18T05:19:25;16.40;99.90
18450;DHT22;9354;50.194;7.690;2022-10-18T05:21:54;16.40;99.90
18450;DHT22;9354;50.194;7.690;2022-10-18T05:24:21;16.40;99.90
18450;DHT22;9354;50.194;7.690;2022-10-18T05:26:49;16.40;99.90
18450;DHT22;9354;50.194;7.690;2022-10-18T05:29:16;16.40;99.90
18450;DHT22;9354;50.194;7.690;2022-10-18T05:31:43;16.50;99.90
18450;DHT22;9354;50.194;7.690;2022-10-18T05:34:11;16.50;99.90
18450;DHT22;9354;50.194;7.690;2022-10-18T05:36:38;16.40;99.90
18450;DHT22;9354;50.194;7.690;2022-10-18T05:39:07;16.40;99.90
18450;DHT22;9354;50.194;7.690;2022-10-18T05:41:35;16.40;99.90
18450;DHT22;9354;50.194;7.690;2022-10-18T05:44:03;16.40;99.90
18450;DHT22;9354;50.194;7.690;2022-10-18T05:46:31;16.40;99.90
18450;DHT22;9354;50.194;7.690;2022-10-18T05:48:58;16.40;99.90
18450;DHT22;9354;50.194;7.690;2022-10-18T05:51:26;16.40;99.90
18450;DHT22;9354;50.194;7.690;2022-10-18T05:53:53;16.40;99.90
18450;DHT22;9354;50.194;7.690;2022-10-18T05:56:22;16.40;99.90
18450;DHT22;9354;50.194;7.690;2022-10-18T05:58:50;16.40;99.90
18450;DHT22;9354;50.194;7.690;2022-10-18T06:01:18;16.40;99.90
18450;DHT22;9354;50.194;7.690;2022-10-18T06:03:45;16.40;99.90
18450;DHT22;9354;50.194;7.690;2022-10-18T06:06:14;16.40;99.90
18450;DHT22;9354;50.194;7.690;2022-10-18T06:08:42;16.30;99.90
18450;DHT22;9354;50.194;7.690;2022-10-18T06:11:11;16.40;99.90
18450;DHT22;9354;50.194;7.690;2022-10-18T06:13:40;16.40;99.90
18450;DHT22;9354;50.194;7.690;2022-10-18T06:16:09;16.40;99.90
18450;DHT22;9354;50.194;7.690;2022-10-18T06:18:37;16.40;99.90
18450;DHT22;9354;50.194;7.690;2022-10-18T06:21:05;16.30;99.90
18450;DHT22;9354;50.194;7.690;2022-10-18T06:23:33;16.40;99.90
18450;DHT22;9354;50.194;7.690;2022-10-18T06:26:01;16.40;99.90
18450;DHT22;9354;50.194;7.690;2022-10-18T06:28:29;16.40;99.90
18450;DHT22;9354;50.194;7.690;2022-10-18T06:30:58;16.40;99.90
18450;DHT22;9354;50.194;7.690;2022-10-18T06:33:25;16.30;99.90
18450;DHT22;9354;50.194;7.690;2022-10-18T06:35:54;16.40;99.90
18450;DHT22;9354;50.194;7.690;2022-10-18T06:38:22;16.40;99.90
18450;DHT22;9354;50.194;7.690;2022-10-18T06:40:49;16.30;99.90
18450;DHT22;9354;50.194;7.690;2022-10-18T06:43:17;16.40;99.90
18450;DHT22;9354;50.194;7.690;2022-10-18T06:45:44;16.40;99.90
18450;DHT22;9354;50.194;7.690;2022-10-18T06:48:13;16.40;99.90
18450;DHT22;9354;50.194;7.690;2022-10-18T06:50:40;16.40;99.90
18450;DHT22;9354;50.194;7.690;2022-10-18T06:53:08;16.40;99.90
18450;DHT22;9354;50.194;7.690;2022-10-18T06:55:35;16.50;99.90
18450;DHT22;9354;50.194;7.690;2022-10-18T06:58:02;16.50;99.90
18450;DHT22;9354;50.194;7.690;2022-10-18T07:00:30;16.50;99.90
18450;DHT22;9354;50.194;7.690;2022-10-18T07:02:57;16.50;99.90
18450;DHT22;9354;50.194;7.690;2022-10-18T07:05:26;16.50;99.90
18450;DHT22;9354;50.194;7.690;2022-10-18T07:07:53;16.50;99.90
18450;DHT22;9354;50.194;7.690;2022-10-18T07:10:20;16.60;99.90
18450;DHT22;9354;50.194;7.690;2022-10-18T07:12:48;16.60;99.90
18450;DHT22;9354;50.194;7.690;2022-10-18T07:15:15;16.60;99.90
18450;DHT22;9354;50.194;7.690;2022-10-18T07:17:43;16.60;99.90
18450;DHT22;9354;50.194;7.690;2022-10-18T07:20:11;16.70;99.90
18450;DHT22;9354;50.194;7.690;2022-10-18T07:22:40;16.70;99.90
18450;DHT22;9354;50.194;7.690;2022-10-18T07:25:08;16.70;99.90
18450;DHT22;9354;50.194;7.690;2022-10-18T07:27:36;16.70;99.90
18450;DHT22;9354;50.194;7.690;2022-10-18T07:30:04;16.80;99.90
18450;DHT22;9354;50.194;7.690;2022-10-18T07:32:32;16.80;99.90
18450;DHT22;9354;50.194;7.690;2022-10-18T07:34:59;16.80;99.90
18450;DHT22;9354;50.194;7.690;2022-10-18T07:37:27;16.80;99.90
18450;DHT22;9354;50.194;7.690;2022-10-18T07:39:56;16.80;99.90
18450;DHT22;9354;50.194;7.690;2022-10-18T07:42:23;16.70;99.90
18450;DHT22;9354;50.194;7.690;2022-10-18T07:44:51;16.70;99.90
18450;DHT22;9354;50.194;7.690;2022-10-18T07:47:18;16.70;99.90
18450;DHT22;9354;50.194;7.690;2022-10-18T07:49:45;16.60;99.90
18450;DHT22;9354;50.194;7.690;2022-10-18T07:52:13;16.60;99.90
18450;DHT22;9354;50.194;7.690;2022-10-18T07:54:40;16.60;99.90
18450;DHT22;9354;50.194;7.690;2022-10-18T07:57:09;16.60;99.90
18450;DHT22;9354;50.194;7.690;2022-10-18T07:59:36;16.50;99.90
18450;DHT22;9354;50.194;7.690;2022-10-18T08:02:04;16.50;99.90
18450;DHT22;9354;50.194;7.690;2022-10-18T08:04:31;16.50;99.90
18450;DHT22;9354;50.194;7.690;2022-10-18T08:06:58;16.50;99.90
18450;DHT22;9354;50.194;7.690;2022-10-18T08:09:26;16.50;99.90
18450;DHT22;9354;50.194;7.690;2022-10-18T08:11:53;16.50;99.90
18450;DHT22;9354;50.194;7.690;2022-10-18T08:14:22;16.50;99.90
18450;DHT22;9354;50.194;7.690;2022-10-18T08:16:49;16.60;99.90
18450;DHT22;9354;50.194;7.690;2022-10-18T08:19:17;16.50;99.90
18450;DHT22;9354;50.194;7.690;2022-10-18T08:21:44;16.60;99.90
18450;DHT22;9354;50.194;7.690;2022-10-18T08:24:11;16.60;99.90
18450;DHT22;9354;50.194;7.690;2022-10-18T08:26:39;16.60;99.90
18450;DHT22;9354;50.194;7.690;2022-10-18T08:29:06;16.50;99.90
18450;DHT22;9354;50.194;7.690;2022-10-18T08:31:35;16.60;99.90
18450;DHT22;9354;50.194;7.690;2022-10-18T08:34:02;16.60;99.90
18450;DHT22;9354;50.194;7.690;2022-10-18T08:36:29;16.60;99.90
18450;DHT22;9354;50.194;7.690;2022-10-18T08:38:57;16.60;99.90
18450;DHT22;9354;50.194;7.690;2022-10-18T08:41:48;16.60;99.90
18450;DHT22;9354;50.194;7.690;2022-10-18T08:44:20;16.60;99.90
18450;DHT22;9354;50.194;7.690;2022-10-18T08:46:52;16.60;99.90
18450;DHT22;9354;50.194;7.690;2022-10-18T08:49:25;16.70;99.90
18450;DHT22;9354;50.194;7.690;2022-10-18T08:51:55;16.70;99.90
18450;DHT22;9354;50.194;7.690;2022-10-18T08:54:28;16.70;99.90
18450;DHT22;9354;50.194;7.690;2022-10-18T08:56:59;16.80;99.90
18450;DHT22;9354;50.194;7.690;2022-10-18T08:59:31;16.80;99.90
18450;DHT22;9354;50.194;7.690;2022-10-18T09:02:11;16.90;99.90
18450;DHT22;9354;50.194;7.690;2022-10-18T09:04:48;16.90;99.90
18450;DHT22;9354;50.194;7.690;2022-10-18T09:07:27;17.00;99.90
18450;DHT22;9354;50.194;7.690;2022-10-18T09:10:03;17.00;99.90
18450;DHT22;9354;50.194;7.690;2022-10-18T09:12:47;17.00;99.90
18450;DHT22;9354;50.194;7.690;2022-10-18T09:15:26;17.00;99.90
18450;DHT22;9354;50.194;7.690;2022-10-18T09:18:07;17.00;99.90
18450;DHT22;9354;50.194;7.690;2022-10-18T09:20:46;17.10;99.90
18450;DHT22;9354;50.194;7.690;2022-10-18T09:23:18;17.10;99.90
18450;DHT22;9354;50.194;7.690;2022-10-18T09:25:47;17.20;99.90
18450;DHT22;9354;50.194;7.690;2022-10-18T09:28:22;17.20;99.90
18450;DHT22;9354;50.194;7.690;2022-10-18T09:31:00;17.20;99.90
18450;DHT22;9354;50.194;7.690;2022-10-18T09:33:38;17.20;99.90
18450;DHT22;9354;50.194;7.690;2022-10-18T09:36:10;17.20;99.90
18450;DHT22;9354;50.194;7.690;2022-10-18T09:38:43;17.20;99.90
18450;DHT22;9354;50.194;7.690;2022-10-18T09:41:15;17.30;99.90
18450;DHT22;9354;50.194;7.690;2022-10-18T09:43:51;17.30;99.90
18450;DHT22;9354;50.194;7.690;2022-10-18T09:46:22;17.20;99.90
18450;DHT22;9354;50.194;7.690;2022-10-18T09:48:55;17.20;99.90
18450;DHT22;9354;50.194;7.690;2022-10-18T09:51:27;17.10;99.90
18450;DHT22;9354;50.194;7.690;2022-10-18T09:54:03;17.10;99.90
18450;DHT22;9354;50.194;7.690;2022-10-18T09:56:37;17.10;99.90
18450;DHT22;9354;50.194;7.690;2022-10-18T09:59:26;17.10;99.90
18450;DHT22;9354;50.194;7.690;2022-10-18T10:01:56;17.00;99.90
18450;DHT22;9354;50.194;7.690;2022-10-18T10:04:24;17.00;99.90
18450;DHT22;9354;50.194;7.690;2022-10-18T10:06:54;17.00;99.90
18450;DHT22;9354;50.194;7.690;2022-10-18T10:09:26;16.90;99.90
18450;DHT22;9354;50.194;7.690;2022-10-18T10:11:55;16.90;99.90
18450;DHT22;9354;50.194;7.690;2022-10-18T10:14:24;16.90;99.90
18450;DHT22;9354;50.194;7.690;2022-10-18T10:16:53;16.90;99.90
18450;DHT22;9354;50.194;7.690;2022-10-18T10:19:29;16.90;99.90
18450;DHT22;9354;50.194;7.690;2022-10-18T10:22:01;17.00;99.90
18450;DHT22;9354;50.194;7.690;2022-10-18T10:24:42;17.00;99.90
18450;DHT22;9354;50.194;7.690;2022-10-18T10:27:18;17.00;99.90
18450;DHT22;9354;50.194;7.690;2022-10-18T10:29:55;17.00;99.90
18450;DHT22;9354;50.194;7.690;2022-10-18T10:32:29;17.10;99.90
18450;DHT22;9354;50.194;7.690;2022-10-18T10:34:58;17.20;99.90
18450;DHT22;9354;50.194;7.690;2022-10-18T10:37:32;17.20;99.90
18450;DHT22;9354;50.194;7.690;2022-10-18T10:40:18;17.30;99.90
18450;DHT22;9354;50.194;7.690;2022-10-18T10:43:13;17.30;99.90
18450;DHT22;9354;50.194;7.690;2022-10-18T10:45:55;17.30;99.90
18450;DHT22;9354;50.194;7.690;2022-10-18T10:48:24;17.40;99.90
18450;DHT22;9354;50.194;7.690;2022-10-18T10:50:57;17.50;99.90
18450;DHT22;9354;50.194;7.690;2022-10-18T10:53:31;17.50;99.90
18450;DHT22;9354;50.194;7.690;2022-10-18T10:56:01;17.60;99.90
18450;DHT22;9354;50.194;7.690;2022-10-18T10:58:37;17.50;99.90
18450;DHT22;9354;50.194;7.690;2022-10-18T11:01:21;17.50;99.90
18450;DHT22;9354;50.194;7.690;2022-10-18T11:03:50;17.50;99.90
18450;DHT22;9354;50.194;7.690;2022-10-18T11:06:57;17.50;99.90
18450;DHT22;9354;50.194;7.690;2022-10-18T11:09:35;17.40;99.90
18450;DHT22;9354;50.194;7.690;2022-10-18T11:12:13;17.40;99.90
18450;DHT22;9354;50.194;7.690;2022-10-18T11:14:45;17.40;99.90
18450;DHT22;9354;50.194;7.690;2022-10-18T11:17:19;17.50;99.90
18450;DHT22;9354;50.194;7.690;2022-10-18T11:20:07;17.60;99.90
18450;DHT22;9354;50.194;7.690;2022-10-18T11:22:41;17.70;99.90
18450;DHT22;9354;50.194;7.690;2022-10-18T11:25:13;17.80;99.90
18450;DHT22;9354;50.194;7.690;2022-10-18T11:27:45;17.80;99.90
18450;DHT22;9354;50.194;7.690;2022-10-18T11:30:41;17.80;99.90
18450;DHT22;9354;50.194;7.690;2022-10-18T11:33:19;17.90;99.90
18450;DHT22;9354;50.194;7.690;2022-10-18T11:35:50;18.10;99.90
18450;DHT22;9354;50.194;7.690;2022-10-18T11:38:29;18.30;99.90
18450;DHT22;9354;50.194;7.690;2022-10-18T11:41:08;18.60;99.90
18450;DHT22;9354;50.194;7.690;2022-10-18T11:43:45;19.00;99.90
18450;DHT22;9354;50.194;7.690;2022-10-18T11:46:21;19.30;99.90
18450;DHT22;9354;50.194;7.690;2022-10-18T11:52:03;19.80;99.90
18450;DHT22;9354;50.194;7.690;2022-10-18T11:54:51;19.90;99.90
18450;DHT22;9354;50.194;7.690;2022-10-18T11:57:42;20.00;99.90
18450;DHT22;9354;50.194;7.690;2022-10-18T12:00:22;20.00;99.90
18450;DHT22;9354;50.194;7.690;2022-10-18T12:03:11;20.10;99.90
18450;DHT22;9354;50.194;7.690;2022-10-18T12:05:43;20.20;99.90
18450;DHT22;9354;50.194;7.690;2022-10-18T12:08:14;20.40;99.90
18450;DHT22;9354;50.194;7.690;2022-10-18T12:10:48;20.60;99.90
18450;DHT22;9354;50.194;7.690;2022-10-18T12:13:20;20.80;99.90
18450;DHT22;9354;50.194;7.690;2022-10-18T12:15:50;20.90;99.90
18450;DHT22;9354;50.194;7.690;2022-10-18T12:18:22;20.90;99.90
18450;DHT22;9354;50.194;7.690;2022-10-18T12:20:52;21.00;99.90
18450;DHT22;9354;50.194;7.690;2022-10-18T12:23:35;21.00;99.90
18450;DHT22;9354;50.194;7.690;2022-10-18T12:26:06;21.00;99.90
18450;DHT22;9354;50.194;7.690;2022-10-18T12:28:44;20.80;99.90
18450;DHT22;9354;50.194;7.690;2022-10-18T12:31:19;20.60;99.90
18450;DHT22;9354;50.194;7.690;2022-10-18T12:33:52;20.30;99.90
18450;DHT22;9354;50.194;7.690;2022-10-18T12:36:37;20.10;99.90
18450;DHT22;9354;50.194;7.690;2022-10-18T12:39:11;19.80;99.90
18450;DHT22;9354;50.194;7.690;2022-10-18T12:41:46;19.70;99.90
18450;DHT22;9354;50.194;7.690;2022-10-18T12:44:19;19.50;99.90
18450;DHT22;9354;50.194;7.690;2022-10-18T12:46:48;19.40;99.90
18450;DHT22;9354;50.194;7.690;2022-10-18T12:49:21;19.30;99.90
18450;DHT22;9354;50.194;7.690;2022-10-18T12:51:52;19.30;99.90
18450;DHT22;9354;50.194;7.690;2022-10-18T12:54:23;19.30;99.90
18450;DHT22;9354;50.194;7.690;2022-10-18T12:56:53;19.20;99.90
18450;DHT22;9354;50.194;7.690;2022-10-18T12:59:50;19.20;99.90
18450;DHT22;9354;50.194;7.690;2022-10-18T13:02:29;19.20;99.90
18450;DHT22;9354;50.194;7.690;2022-10-18T13:04:58;19.20;99.90
18450;DHT22;9354;50.194;7.690;2022-10-18T13:07:35;19.10;99.90
18450;DHT22;9354;50.194;7.690;2022-10-18T13:10:39;19.00;99.90
18450;DHT22;9354;50.194;7.690;2022-10-18T13:13:33;18.90;99.90
18450;DHT22;9354;50.194;7.690;2022-10-18T13:16:11;18.90;99.90
18450;DHT22;9354;50.194;7.690;2022-10-18T13:18:50;18.90;99.90
18450;DHT22;9354;50.194;7.690;2022-10-18T13:21:22;18.90;99.90
18450;DHT22;9354;50.194;7.690;2022-10-18T13:24:08;18.80;99.90
18450;DHT22;9354;50.194;7.690;2022-10-18T13:26:45;18.80;99.90
18450;DHT22;9354;50.194;7.690;2022-10-18T13:29:42;18.80;99.90
18450;DHT22;9354;50.194;7.690;2022-10-18T13:32:21;18.80;99.90
18450;DHT22;9354;50.194;7.690;2022-10-18T13:34:50;18.70;99.90
18450;DHT22;9354;50.194;7.690;2022-10-18T13:37:20;18.80;99.90
18450;DHT22;9354;50.194;7.690;2022-10-18T13:39:51;18.80;99.90
18450;DHT22;9354;50.194;7.690;2022-10-18T13:42:38;18.80;99.90
18450;DHT22;9354;50.194;7.690;2022-10-18T13:45:43;18.80;99.90
18450;DHT22;9354;50.194;7.690;2022-10-18T13:48:46;18.80;99.90
18450;DHT22;9354;50.194;7.690;2022-10-18T13:54:37;18.80;99.90
18450;DHT22;9354;50.194;7.690;2022-10-18T13:57:16;18.70;99.90
18450;DHT22;9354;50.194;7.690;2022-10-18T13:59:56;18.60;99.90
18450;DHT22;9354;50.194;7.690;2022-10-18T14:02:59;18.60;99.90
18450;DHT22;9354;50.194;7.690;2022-10-18T14:05:48;18.60;99.90
18450;DHT22;9354;50.194;7.690;2022-10-18T14:08:21;18.60;99.90
18450;DHT22;9354;50.194;7.690;2022-10-18T14:10:58;18.50;99.90
18450;DHT22;9354;50.194;7.690;2022-10-18T14:13:33;18.50;99.90
18450;DHT22;9354;50.194;7.690;2022-10-18T14:16:06;18.50;99.90
18450;DHT22;9354;50.194;7.690;2022-10-18T14:18:40;18.30;99.90
18450;DHT22;9354;50.194;7.690;2022-10-18T14:21:15;18.30;99.90
18450;DHT22;9354;50.194;7.690;2022-10-18T14:23:45;18.30;99.90
18450;DHT22;9354;50.194;7.690;2022-10-18T14:26:14;18.30;99.90
18450;DHT22;9354;50.194;7.690;2022-10-18T14:28:42;18.30;99.90
18450;DHT22;9354;50.194;7.690;2022-10-18T14:31:13;18.30;99.90
18450;DHT22;9354;50.194;7.690;2022-10-18T14:33:44;18.30;99.90
18450;DHT22;9354;50.194;7.690;2022-10-18T14:36:13;18.20;99.90
18450;DHT22;9354;50.194;7.690;2022-10-18T14:38:47;18.20;99.90
18450;DHT22;9354;50.194;7.690;2022-10-18T14:41:19;18.10;99.90
18450;DHT22;9354;50.194;7.690;2022-10-18T14:43:47;18.10;99.90
18450;DHT22;9354;50.194;7.690;2022-10-18T14:46:19;18.10;99.90
18450;DHT22;9354;50.194;7.690;2022-10-18T14:48:55;18.10;99.90
18450;DHT22;9354;50.194;7.690;2022-10-18T14:51:26;18.00;99.90
18450;DHT22;9354;50.194;7.690;2022-10-18T14:53:55;18.00;99.90
18450;DHT22;9354;50.194;7.690;2022-10-18T14:56:25;18.00;99.90
18450;DHT22;9354;50.194;7.690;2022-10-18T14:58:55;18.00;99.90
18450;DHT22;9354;50.194;7.690;2022-10-18T15:01:25;18.00;99.90
18450;DHT22;9354;50.194;7.690;2022-10-18T15:03:59;18.00;99.90
18450;DHT22;9354;50.194;7.690;2022-10-18T15:06:27;18.00;99.90
18450;DHT22;9354;50.194;7.690;2022-10-18T15:08:56;18.00;99.90
18450;DHT22;9354;50.194;7.690;2022-10-18T15:11:25;18.00;99.90
18450;DHT22;9354;50.194;7.690;2022-10-18T15:13:55;18.00;99.90
18450;DHT22;9354;50.194;7.690;2022-10-18T15:16:25;18.00;99.90
18450;DHT22;9354;50.194;7.690;2022-10-18T15:19:18;17.90;99.90
18450;DHT22;9354;50.194;7.690;2022-10-18T15:21:54;17.90;99.90
18450;DHT22;9354;50.194;7.690;2022-10-18T15:24:29;17.80;99.90
18450;DHT22;9354;50.194;7.690;2022-10-18T15:27:00;17.80;99.90
18450;DHT22;9354;50.194;7.690;2022-10-18T15:29:30;17.70;99.90
18450;DHT22;9354;50.194;7.690;2022-10-18T15:32:07;17.70;99.90
18450;DHT22;9354;50.194;7.690;2022-10-18T15:34:40;17.60;99.90
18450;DHT22;9354;50.194;7.690;2022-10-18T15:37:24;17.60;99.90
18450;DHT22;9354;50.194;7.690;2022-10-18T15:40:17;17.50;99.90
18450;DHT22;9354;50.194;7.690;2022-10-18T15:42:45;17.50;99.90
18450;DHT22;9354;50.194;7.690;2022-10-18T15:45:36;17.40;99.90
18450;DHT22;9354;50.194;7.690;2022-10-18T15:48:25;17.40;99.90
18450;DHT22;9354;50.194;7.690;2022-10-18T15:50:55;17.40;99.90
18450;DHT22;9354;50.194;7.690;2022-10-18T15:53:50;17.40;99.90
18450;DHT22;9354;50.194;7.690;2022-10-18T15:56:31;17.30;99.90
18450;DHT22;9354;50.194;7.690;2022-10-18T15:59:00;17.30;99.90
18450;DHT22;9354;50.194;7.690;2022-10-18T16:01:34;17.30;99.90
18450;DHT22;9354;50.194;7.690;2022-10-18T16:04:06;17.20;99.90
18450;DHT22;9354;50.194;7.690;2022-10-18T16:06:35;17.20;99.90
18450;DHT22;9354;50.194;7.690;2022-10-18T16:09:03;17.10;99.90
18450;DHT22;9354;50.194;7.690;2022-10-18T16:11:31;17.10;99.90
18450;DHT22;9354;50.194;7.690;2022-10-18T16:13:58;17.10;99.90
18450;DHT22;9354;50.194;7.690;2022-10-18T16:16:27;17.10;99.90
18450;DHT22;9354;50.194;7.690;2022-10-18T16:18:55;17.10;99.90
18450;DHT22;9354;50.194;7.690;2022-10-18T16:21:24;17.00;99.90
18450;DHT22;9354;50.194;7.690;2022-10-18T16:23:53;17.00;99.90